sensor_id;sensor_type;location;lat;lon;timestamp;P1;durP1;ratioP1;P2;durP2;ratioP2
18443;SDS011;9350;53.176;8.194;2023-05-09T00:00:43;7.43;;;4.28;;
18443;SDS011;9350;53.176;8.194;2023-05-09T00:03:10;5.65;;;4.63;;
18443;SDS011;9350;53.176;8.194;2023-05-09T00:05:38;5.45;;;4.40;;
18443;SDS011;9350;53.176;8.194;2023-05-09T00:08:05;5.15;;;4.30;;
18443;SDS011;9350;53.176;8.194;2023-05-09T00:10:32;5.40;;;4.40;;
18443;SDS011;9350;53.176;8.194;2023-05-09T00:12:59;4.45;;;4.05;;
18443;SDS011;9350;53.176;8.194;2023-05-09T00:15:27;5.45;;;3.88;;
18443;SDS011;9350;53.176;8.194;2023-05-09T00:17:54;5.03;;;4.63;;
18443;SDS011;9350;53.176;8.194;2023-05-09T00:20:21;4.75;;;4.20;;
18443;SDS011;9350;53.176;8.194;2023-05-09T00:22:48;4.78;;;4.30;;
18443;SDS011;9350;53.176;8.194;2023-05-09T00:25:14;4.43;;;4.10;;
18443;SDS011;9350;53.176;8.194;2023-05-09T00:27:41;4.10;;;3.80;;
18443;SDS011;9350;53.176;8.194;2023-05-09T00:30:08;4.50;;;4.10;;
18443;SDS011;9350;53.176;8.194;2023-05-09T00:32:36;4.65;;;4.22;;
18443;SDS011;9350;53.176;8.194;2023-05-09T00:35:04;4.97;;;4.10;;
18443;SDS011;9350;53.176;8.194;2023-05-09T00:37:32;4.35;;;3.95;;
18443;SDS011;9350;53.176;8.194;2023-05-09T00:39:58;5.25;;;4.15;;
18443;SDS011;9350;53.176;8.194;2023-05-09T00:42:25;6.50;;;4.32;;
18443;SDS011;9350;53.176;8.194;2023-05-09T00:44:52;5.50;;;4.35;;
18443;SDS011;9350;53.176;8.194;2023-05-09T00:47:19;5.03;;;4.20;;
18443;SDS011;9350;53.176;8.194;2023-05-09T00:49:49;4.30;;;3.90;;
18443;SDS011;9350;53.176;8.194;2023-05-09T00:52:16;6.60;;;4.50;;
18443;SDS011;9350;53.176;8.194;2023-05-09T00:54:47;4.55;;;3.63;;
18443;SDS011;9350;53.176;8.194;2023-05-09T00:57:14;5.30;;;4.32;;
18443;SDS011;9350;53.176;8.194;2023-05-09T00:59:41;4.70;;;4.28;;
18443;SDS011;9350;53.176;8.194;2023-05-09T01:02:08;4.93;;;4.43;;
18443;SDS011;9350;53.176;8.194;2023-05-09T01:04:35;6.20;;;4.65;;
18443;SDS011;9350;53.176;8.194;2023-05-09T01:07:05;4.93;;;4.53;;
18443;SDS011;9350;53.176;8.194;2023-05-09T01:09:40;7.35;;;4.63;;
18443;SDS011;9350;53.176;8.194;2023-05-09T01:12:12;4.80;;;4.40;;
18443;SDS011;9350;53.176;8.194;2023-05-09T01:14:53;4.68;;;4.22;;
18443;SDS011;9350;53.176;8.194;2023-05-09T01:17:29;5.13;;;4.10;;
18443;SDS011;9350;53.176;8.194;2023-05-09T01:20:03;5.75;;;4.10;;
18443;SDS011;9350;53.176;8.194;2023-05-09T01:22:41;5.05;;;4.13;;
18443;SDS011;9350;53.176;8.194;2023-05-09T01:25:34;5.20;;;3.85;;
18443;SDS011;9350;53.176;8.194;2023-05-09T01:28:11;5.00;;;4.40;;
18443;SDS011;9350;53.176;8.194;2023-05-09T01:30:40;4.82;;;4.20;;
18443;SDS011;9350;53.176;8.194;2023-05-09T01:33:11;4.82;;;4.32;;
18443;SDS011;9350;53.176;8.194;2023-05-09T01:35:41;4.38;;;4.05;;
18443;SDS011;9350;53.176;8.194;2023-05-09T01:38:14;4.15;;;3.75;;
18443;SDS011;9350;53.176;8.194;2023-05-09T01:40:46;4.20;;;3.78;;
18443;SDS011;9350;53.176;8.194;2023-05-09T01:43:15;4.35;;;4.00;;
18443;SDS011;9350;53.176;8.194;2023-05-09T01:45:45;5.80;;;4.03;;
18443;SDS011;9350;53.176;8.194;2023-05-09T01:48:13;4.78;;;4.10;;
18443;SDS011;9350;53.176;8.194;2023-05-09T01:50:41;5.88;;;3.83;;
18443;SDS011;9350;53.176;8.194;2023-05-09T01:53:09;4.65;;;4.00;;
18443;SDS011;9350;53.176;8.194;2023-05-09T01:55:37;4.10;;;3.70;;
18443;SDS011;9350;53.176;8.194;2023-05-09T01:58:06;5.10;;;3.38;;
18443;SDS011;9350;53.176;8.194;2023-05-09T02:00:34;13.68;;;3.92;;
18443;SDS011;9350;53.176;8.194;2023-05-09T02:03:03;4.38;;;3.90;;
18443;SDS011;9350;53.176;8.194;2023-05-09T02:05:31;4.00;;;3.53;;
18443;SDS011;9350;53.176;8.194;2023-05-09T02:07:58;6.25;;;3.70;;
18443;SDS011;9350;53.176;8.194;2023-05-09T02:10:26;5.45;;;3.08;;
18443;SDS011;9350;53.176;8.194;2023-05-09T02:12:53;7.60;;;3.58;;
18443;SDS011;9350;53.176;8.194;2023-05-09T02:15:21;6.60;;;3.45;;
18443;SDS011;9350;53.176;8.194;2023-05-09T02:17:48;4.70;;;3.22;;
18443;SDS011;9350;53.176;8.194;2023-05-09T02:20:16;3.75;;;3.13;;
18443;SDS011;9350;53.176;8.194;2023-05-09T02:22:43;4.65;;;3.38;;
18443;SDS011;9350;53.176;8.194;2023-05-09T02:25:10;4.15;;;3.53;;
18443;SDS011;9350;53.176;8.194;2023-05-09T02:27:39;3.40;;;3.10;;
18443;SDS011;9350;53.176;8.194;2023-05-09T02:30:08;3.22;;;2.95;;
18443;SDS011;9350;53.176;8.194;2023-05-09T02:32:39;3.75;;;3.13;;
18443;SDS011;9350;53.176;8.194;2023-05-09T02:35:10;4.80;;;3.50;;
18443;SDS011;9350;53.176;8.194;2023-05-09T02:37:41;3.85;;;3.53;;
18443;SDS011;9350;53.176;8.194;2023-05-09T02:40:08;3.53;;;3.22;;
18443;SDS011;9350;53.176;8.194;2023-05-09T02:42:37;3.58;;;3.28;;
18443;SDS011;9350;53.176;8.194;2023-05-09T02:45:04;3.55;;;3.30;;
18443;SDS011;9350;53.176;8.194;2023-05-09T02:47:33;4.22;;;3.80;;
18443;SDS011;9350;53.176;8.194;2023-05-09T02:49:59;4.28;;;3.30;;
18443;SDS011;9350;53.176;8.194;2023-05-09T02:52:26;3.92;;;3.53;;
18443;SDS011;9350;53.176;8.194;2023-05-09T02:54:54;5.10;;;3.60;;
18443;SDS011;9350;53.176;8.194;2023-05-09T02:57:21;5.68;;;3.78;;
18443;SDS011;9350;53.176;8.194;2023-05-09T02:59:47;3.70;;;3.22;;
18443;SDS011;9350;53.176;8.194;2023-05-09T03:02:14;7.93;;;3.38;;
18443;SDS011;9350;53.176;8.194;2023-05-09T03:04:41;5.65;;;3.35;;
18443;SDS011;9350;53.176;8.194;2023-05-09T03:07:07;7.57;;;3.75;;
18443;SDS011;9350;53.176;8.194;2023-05-09T03:09:34;6.20;;;4.30;;
18443;SDS011;9350;53.176;8.194;2023-05-09T03:12:02;6.45;;;3.42;;
18443;SDS011;9350;53.176;8.194;2023-05-09T03:14:29;4.65;;;3.38;;
18443;SDS011;9350;53.176;8.194;2023-05-09T03:16:56;3.90;;;3.55;;
18443;SDS011;9350;53.176;8.194;2023-05-09T03:19:23;3.75;;;3.40;;
18443;SDS011;9350;53.176;8.194;2023-05-09T03:21:49;3.80;;;3.50;;
18443;SDS011;9350;53.176;8.194;2023-05-09T03:24:16;7.15;;;3.40;;
18443;SDS011;9350;53.176;8.194;2023-05-09T03:26:43;3.42;;;3.13;;
18443;SDS011;9350;53.176;8.194;2023-05-09T03:29:11;3.22;;;2.92;;
18443;SDS011;9350;53.176;8.194;2023-05-09T03:31:38;3.67;;;3.35;;
18443;SDS011;9350;53.176;8.194;2023-05-09T03:34:04;3.38;;;3.15;;
18443;SDS011;9350;53.176;8.194;2023-05-09T03:36:31;4.47;;;3.10;;
18443;SDS011;9350;53.176;8.194;2023-05-09T03:38:58;3.53;;;3.22;;
18443;SDS011;9350;53.176;8.194;2023-05-09T03:41:24;5.53;;;3.30;;
18443;SDS011;9350;53.176;8.194;2023-05-09T03:43:51;3.85;;;3.30;;
18443;SDS011;9350;53.176;8.194;2023-05-09T03:46:19;3.60;;;3.30;;
18443;SDS011;9350;53.176;8.194;2023-05-09T03:48:46;3.60;;;3.30;;
18443;SDS011;9350;53.176;8.194;2023-05-09T03:51:12;3.20;;;3.00;;
18443;SDS011;9350;53.176;8.194;2023-05-09T03:53:39;3.53;;;3.22;;
18443;SDS011;9350;53.176;8.194;2023-05-09T03:56:06;5.90;;;3.28;;
18443;SDS011;9350;53.176;8.194;2023-05-09T03:58:32;5.25;;;3.75;;
18443;SDS011;9350;53.176;8.194;2023-05-09T04:00:59;4.00;;;3.00;;
18443;SDS011;9350;53.176;8.194;2023-05-09T04:03:28;5.57;;;3.10;;
18443;SDS011;9350;53.176;8.194;2023-05-09T04:05:54;4.75;;;3.45;;
18443;SDS011;9350;53.176;8.194;2023-05-09T04:08:21;5.88;;;2.90;;
18443;SDS011;9350;53.176;8.194;2023-05-09T04:10:48;7.07;;;3.30;;
18443;SDS011;9350;53.176;8.194;2023-05-09T04:13:16;3.85;;;3.53;;
18443;SDS011;9350;53.176;8.194;2023-05-09T04:15:43;6.53;;;3.50;;
18443;SDS011;9350;53.176;8.194;2023-05-09T04:18:10;3.95;;;3.22;;
18443;SDS011;9350;53.176;8.194;2023-05-09T04:20:38;3.65;;;3.38;;
18443;SDS011;9350;53.176;8.194;2023-05-09T04:23:04;3.70;;;3.33;;
18443;SDS011;9350;53.176;8.194;2023-05-09T04:25:31;3.97;;;3.50;;
18443;SDS011;9350;53.176;8.194;2023-05-09T04:27:58;3.65;;;3.10;;
18443;SDS011;9350;53.176;8.194;2023-05-09T04:30:25;3.65;;;3.35;;
18443;SDS011;9350;53.176;8.194;2023-05-09T04:32:52;3.83;;;3.13;;
18443;SDS011;9350;53.176;8.194;2023-05-09T04:35:19;4.07;;;3.30;;
18443;SDS011;9350;53.176;8.194;2023-05-09T04:37:47;4.72;;;3.67;;
18443;SDS011;9350;53.176;8.194;2023-05-09T04:40:14;4.43;;;3.58;;
18443;SDS011;9350;53.176;8.194;2023-05-09T04:42:41;3.97;;;3.28;;
18443;SDS011;9350;53.176;8.194;2023-05-09T04:45:08;8.07;;;3.65;;
18443;SDS011;9350;53.176;8.194;2023-05-09T04:47:36;3.50;;;3.20;;
18443;SDS011;9350;53.176;8.194;2023-05-09T04:50:03;6.72;;;3.50;;
18443;SDS011;9350;53.176;8.194;2023-05-09T04:52:30;5.30;;;3.65;;
18443;SDS011;9350;53.176;8.194;2023-05-09T04:54:58;5.28;;;3.78;;
18443;SDS011;9350;53.176;8.194;2023-05-09T04:57:25;6.68;;;3.72;;
18443;SDS011;9350;53.176;8.194;2023-05-09T04:59:51;4.20;;;2.92;;
18443;SDS011;9350;53.176;8.194;2023-05-09T05:02:18;4.43;;;3.58;;
18443;SDS011;9350;53.176;8.194;2023-05-09T05:04:46;4.55;;;3.58;;
18443;SDS011;9350;53.176;8.194;2023-05-09T05:07:12;3.60;;;3.15;;
18443;SDS011;9350;53.176;8.194;2023-05-09T05:09:39;6.22;;;3.60;;
18443;SDS011;9350;53.176;8.194;2023-05-09T05:12:07;4.18;;;3.40;;
18443;SDS011;9350;53.176;8.194;2023-05-09T05:14:34;6.60;;;3.75;;
18443;SDS011;9350;53.176;8.194;2023-05-09T05:17:01;4.82;;;3.63;;
18443;SDS011;9350;53.176;8.194;2023-05-09T05:19:27;3.80;;;3.40;;
18443;SDS011;9350;53.176;8.194;2023-05-09T05:21:54;3.88;;;3.58;;
18443;SDS011;9350;53.176;8.194;2023-05-09T05:24:21;8.38;;;3.70;;
18443;SDS011;9350;53.176;8.194;2023-05-09T05:26:47;4.07;;;3.35;;
18443;SDS011;9350;53.176;8.194;2023-05-09T05:29:15;6.97;;;3.80;;
18443;SDS011;9350;53.176;8.194;2023-05-09T05:31:42;4.05;;;3.65;;
18443;SDS011;9350;53.176;8.194;2023-05-09T05:34:09;4.25;;;3.70;;
18443;SDS011;9350;53.176;8.194;2023-05-09T05:36:36;5.95;;;3.78;;
18443;SDS011;9350;53.176;8.194;2023-05-09T05:39:02;5.53;;;3.80;;
18443;SDS011;9350;53.176;8.194;2023-05-09T05:41:29;7.03;;;3.50;;
18443;SDS011;9350;53.176;8.194;2023-05-09T05:43:56;5.82;;;3.60;;
18443;SDS011;9350;53.176;8.194;2023-05-09T05:46:24;4.85;;;3.28;;
18443;SDS011;9350;53.176;8.194;2023-05-09T05:48:51;5.00;;;3.05;;
18443;SDS011;9350;53.176;8.194;2023-05-09T05:51:18;5.15;;;3.58;;
18443;SDS011;9350;53.176;8.194;2023-05-09T05:53:44;7.55;;;3.80;;
18443;SDS011;9350;53.176;8.194;2023-05-09T05:56:11;4.53;;;3.42;;
18443;SDS011;9350;53.176;8.194;2023-05-09T05:58:38;4.10;;;3.40;;
18443;SDS011;9350;53.176;8.194;2023-05-09T06:01:04;7.82;;;3.72;;
18443;SDS011;9350;53.176;8.194;2023-05-09T06:03:32;3.78;;;3.30;;
18443;SDS011;9350;53.176;8.194;2023-05-09T06:05:59;5.85;;;3.47;;
18443;SDS011;9350;53.176;8.194;2023-05-09T06:08:26;3.80;;;3.50;;
18443;SDS011;9350;53.176;8.194;2023-05-09T06:10:53;9.05;;;3.92;;
18443;SDS011;9350;53.176;8.194;2023-05-09T06:13:19;5.13;;;3.30;;
18443;SDS011;9350;53.176;8.194;2023-05-09T06:15:46;6.40;;;3.78;;
18443;SDS011;9350;53.176;8.194;2023-05-09T06:18:13;4.35;;;3.35;;
18443;SDS011;9350;53.176;8.194;2023-05-09T06:20:41;4.13;;;3.38;;
18443;SDS011;9350;53.176;8.194;2023-05-09T06:23:08;7.90;;;3.75;;
18443;SDS011;9350;53.176;8.194;2023-05-09T06:25:34;4.13;;;3.53;;
18443;SDS011;9350;53.176;8.194;2023-05-09T06:28:01;6.45;;;3.78;;
18443;SDS011;9350;53.176;8.194;2023-05-09T06:30:28;6.07;;;4.35;;
18443;SDS011;9350;53.176;8.194;2023-05-09T06:32:55;5.50;;;3.72;;
18443;SDS011;9350;53.176;8.194;2023-05-09T06:35:22;4.40;;;3.90;;
18443;SDS011;9350;53.176;8.194;2023-05-09T06:37:50;5.05;;;3.60;;
18443;SDS011;9350;53.176;8.194;2023-05-09T06:40:17;4.68;;;4.18;;
18443;SDS011;9350;53.176;8.194;2023-05-09T06:42:44;9.13;;;5.15;;
18443;SDS011;9350;53.176;8.194;2023-05-09T06:45:11;7.03;;;4.50;;
18443;SDS011;9350;53.176;8.194;2023-05-09T06:47:38;4.85;;;4.35;;
18443;SDS011;9350;53.176;8.194;2023-05-09T06:50:05;7.57;;;5.25;;
18443;SDS011;9350;53.176;8.194;2023-05-09T06:52:33;7.47;;;4.97;;
18443;SDS011;9350;53.176;8.194;2023-05-09T06:55:01;6.90;;;4.90;;
18443;SDS011;9350;53.176;8.194;2023-05-09T06:57:28;5.60;;;4.88;;
18443;SDS011;9350;53.176;8.194;2023-05-09T06:59:55;7.45;;;4.78;;
18443;SDS011;9350;53.176;8.194;2023-05-09T07:02:21;8.57;;;5.28;;
18443;SDS011;9350;53.176;8.194;2023-05-09T07:04:48;5.60;;;5.10;;
18443;SDS011;9350;53.176;8.194;2023-05-09T07:07:15;9.27;;;5.18;;
18443;SDS011;9350;53.176;8.194;2023-05-09T07:09:41;5.07;;;4.57;;
18443;SDS011;9350;53.176;8.194;2023-05-09T07:12:09;6.28;;;5.30;;
18443;SDS011;9350;53.176;8.194;2023-05-09T07:14:36;7.10;;;5.43;;
18443;SDS011;9350;53.176;8.194;2023-05-09T07:17:03;10.93;;;5.55;;
18443;SDS011;9350;53.176;8.194;2023-05-09T07:19:30;6.72;;;5.68;;
18443;SDS011;9350;53.176;8.194;2023-05-09T07:21:56;7.40;;;5.63;;
18443;SDS011;9350;53.176;8.194;2023-05-09T07:24:23;9.95;;;6.40;;
18443;SDS011;9350;53.176;8.194;2023-05-09T07:26:50;9.38;;;5.85;;
18443;SDS011;9350;53.176;8.194;2023-05-09T07:29:18;6.93;;;6.22;;
18443;SDS011;9350;53.176;8.194;2023-05-09T07:31:45;7.85;;;5.93;;
18443;SDS011;9350;53.176;8.194;2023-05-09T07:34:11;9.00;;;6.00;;
18443;SDS011;9350;53.176;8.194;2023-05-09T07:36:38;8.57;;;5.95;;
18443;SDS011;9350;53.176;8.194;2023-05-09T07:39:05;8.25;;;6.00;;
18443;SDS011;9350;53.176;8.194;2023-05-09T07:41:32;8.75;;;6.13;;
18443;SDS011;9350;53.176;8.194;2023-05-09T07:43:58;10.60;;;6.15;;
18443;SDS011;9350;53.176;8.194;2023-05-09T07:46:26;7.85;;;6.20;;
18443;SDS011;9350;53.176;8.194;2023-05-09T07:48:53;8.45;;;6.38;;
18443;SDS011;9350;53.176;8.194;2023-05-09T07:51:20;8.25;;;6.88;;
18443;SDS011;9350;53.176;8.194;2023-05-09T07:53:47;9.27;;;7.22;;
18443;SDS011;9350;53.176;8.194;2023-05-09T07:56:13;8.05;;;6.90;;
18443;SDS011;9350;53.176;8.194;2023-05-09T07:58:40;8.00;;;7.03;;
18443;SDS011;9350;53.176;8.194;2023-05-09T08:01:07;11.68;;;6.95;;
18443;SDS011;9350;53.176;8.194;2023-05-09T08:03:35;10.40;;;7.55;;
18443;SDS011;9350;53.176;8.194;2023-05-09T08:06:01;9.00;;;6.88;;
18443;SDS011;9350;53.176;8.194;2023-05-09T08:08:28;9.05;;;7.60;;
18443;SDS011;9350;53.176;8.194;2023-05-09T08:10:55;11.18;;;7.88;;
18443;SDS011;9350;53.176;8.194;2023-05-09T08:13:22;9.20;;;7.03;;
18443;SDS011;9350;53.176;8.194;2023-05-09T08:15:49;10.70;;;7.70;;
18443;SDS011;9350;53.176;8.194;2023-05-09T08:18:16;9.85;;;8.07;;
18443;SDS011;9350;53.176;8.194;2023-05-09T08:20:44;9.00;;;8.07;;
18443;SDS011;9350;53.176;8.194;2023-05-09T08:23:11;11.73;;;8.35;;
18443;SDS011;9350;53.176;8.194;2023-05-09T08:25:38;11.57;;;8.27;;
18443;SDS011;9350;53.176;8.194;2023-05-09T08:28:04;11.95;;;8.85;;
18443;SDS011;9350;53.176;8.194;2023-05-09T08:30:31;11.23;;;7.30;;
18443;SDS011;9350;53.176;8.194;2023-05-09T08:32:58;12.70;;;8.13;;
18443;SDS011;9350;53.176;8.194;2023-05-09T08:35:24;16.55;;;9.80;;
18443;SDS011;9350;53.176;8.194;2023-05-09T08:37:52;14.80;;;9.57;;
18443;SDS011;9350;53.176;8.194;2023-05-09T08:40:19;13.55;;;8.95;;
18443;SDS011;9350;53.176;8.194;2023-05-09T08:42:46;12.75;;;9.13;;
18443;SDS011;9350;53.176;8.194;2023-05-09T08:45:14;14.57;;;9.48;;
18443;SDS011;9350;53.176;8.194;2023-05-09T08:47:45;11.88;;;8.98;;
18443;SDS011;9350;53.176;8.194;2023-05-09T08:50:12;10.68;;;9.20;;
18443;SDS011;9350;53.176;8.194;2023-05-09T08:52:41;14.80;;;10.13;;
18443;SDS011;9350;53.176;8.194;2023-05-09T08:55:09;13.55;;;10.98;;
18443;SDS011;9350;53.176;8.194;2023-05-09T08:57:36;11.48;;;8.88;;
18443;SDS011;9350;53.176;8.194;2023-05-09T09:00:04;14.10;;;9.57;;
18443;SDS011;9350;53.176;8.194;2023-05-09T09:02:31;13.02;;;9.60;;
18443;SDS011;9350;53.176;8.194;2023-05-09T09:04:58;12.27;;;9.30;;
18443;SDS011;9350;53.176;8.194;2023-05-09T09:07:26;16.00;;;10.68;;
18443;SDS011;9350;53.176;8.194;2023-05-09T09:09:54;11.32;;;9.52;;
18443;SDS011;9350;53.176;8.194;2023-05-09T09:12:25;12.18;;;9.18;;
18443;SDS011;9350;53.176;8.194;2023-05-09T09:14:52;13.05;;;9.32;;
18443;SDS011;9350;53.176;8.194;2023-05-09T09:17:22;11.98;;;8.98;;
18443;SDS011;9350;53.176;8.194;2023-05-09T09:19:52;11.85;;;9.70;;
18443;SDS011;9350;53.176;8.194;2023-05-09T09:22:23;12.88;;;9.75;;
18443;SDS011;9350;53.176;8.194;2023-05-09T09:24:57;13.55;;;9.52;;
18443;SDS011;9350;53.176;8.194;2023-05-09T09:27:25;12.35;;;9.35;;
18443;SDS011;9350;53.176;8.194;2023-05-09T09:29:52;14.38;;;9.35;;
18443;SDS011;9350;53.176;8.194;2023-05-09T09:32:18;10.77;;;8.85;;
18443;SDS011;9350;53.176;8.194;2023-05-09T09:37:20;11.15;;;8.80;;
18443;SDS011;9350;53.176;8.194;2023-05-09T09:39:53;11.73;;;9.07;;
18443;SDS011;9350;53.176;8.194;2023-05-09T09:42:21;11.30;;;8.68;;
18443;SDS011;9350;53.176;8.194;2023-05-09T09:44:51;9.27;;;8.27;;
18443;SDS011;9350;53.176;8.194;2023-05-09T09:47:29;10.85;;;9.35;;
18443;SDS011;9350;53.176;8.194;2023-05-09T09:49:56;10.73;;;9.23;;
18443;SDS011;9350;53.176;8.194;2023-05-09T09:52:23;12.65;;;9.40;;
18443;SDS011;9350;53.176;8.194;2023-05-09T09:54:50;11.38;;;9.18;;
18443;SDS011;9350;53.176;8.194;2023-05-09T09:57:33;12.27;;;8.75;;
18443;SDS011;9350;53.176;8.194;2023-05-09T10:00:04;11.48;;;9.35;;
18443;SDS011;9350;53.176;8.194;2023-05-09T10:02:32;11.73;;;9.38;;
18443;SDS011;9350;53.176;8.194;2023-05-09T10:05:04;12.13;;;9.70;;
18443;SDS011;9350;53.176;8.194;2023-05-09T10:07:32;10.73;;;8.70;;
18443;SDS011;9350;53.176;8.194;2023-05-09T10:10:00;11.65;;;8.98;;
18443;SDS011;9350;53.176;8.194;2023-05-09T10:12:30;13.30;;;9.55;;
18443;SDS011;9350;53.176;8.194;2023-05-09T10:15:00;14.65;;;10.30;;
18443;SDS011;9350;53.176;8.194;2023-05-09T10:17:32;13.00;;;9.48;;
18443;SDS011;9350;53.176;8.194;2023-05-09T10:19:58;9.02;;;8.07;;
18443;SDS011;9350;53.176;8.194;2023-05-09T10:22:29;9.63;;;8.35;;
18443;SDS011;9350;53.176;8.194;2023-05-09T10:25:00;13.93;;;9.00;;
18443;SDS011;9350;53.176;8.194;2023-05-09T10:27:29;11.55;;;8.95;;
18443;SDS011;9350;53.176;8.194;2023-05-09T10:30:01;15.77;;;10.07;;
18443;SDS011;9350;53.176;8.194;2023-05-09T10:32:36;11.13;;;9.02;;
18443;SDS011;9350;53.176;8.194;2023-05-09T10:35:07;12.40;;;9.43;;
18443;SDS011;9350;53.176;8.194;2023-05-09T10:37:37;11.02;;;9.35;;
18443;SDS011;9350;53.176;8.194;2023-05-09T10:40:05;14.15;;;9.27;;
18443;SDS011;9350;53.176;8.194;2023-05-09T10:42:33;11.95;;;10.23;;
18443;SDS011;9350;53.176;8.194;2023-05-09T10:45:00;12.27;;;10.48;;
18443;SDS011;9350;53.176;8.194;2023-05-09T10:47:29;15.52;;;10.07;;
18443;SDS011;9350;53.176;8.194;2023-05-09T10:49:57;11.80;;;9.30;;
18443;SDS011;9350;53.176;8.194;2023-05-09T10:52:24;10.45;;;8.43;;
18443;SDS011;9350;53.176;8.194;2023-05-09T10:54:59;10.18;;;8.52;;
18443;SDS011;9350;53.176;8.194;2023-05-09T10:57:27;10.25;;;8.95;;
18443;SDS011;9350;53.176;8.194;2023-05-09T10:59:54;12.10;;;8.52;;
18443;SDS011;9350;53.176;8.194;2023-05-09T11:02:23;12.30;;;8.75;;
18443;SDS011;9350;53.176;8.194;2023-05-09T11:07:41;9.80;;;8.30;;
18443;SDS011;9350;53.176;8.194;2023-05-09T11:10:09;9.77;;;7.68;;
18443;SDS011;9350;53.176;8.194;2023-05-09T11:12:52;10.70;;;8.60;;
18443;SDS011;9350;53.176;8.194;2023-05-09T11:15:20;10.43;;;8.20;;
18443;SDS011;9350;53.176;8.194;2023-05-09T11:18:03;12.27;;;7.88;;
18443;SDS011;9350;53.176;8.194;2023-05-09T11:20:32;10.45;;;8.18;;
18443;SDS011;9350;53.176;8.194;2023-05-09T11:23:00;9.63;;;8.02;;
18443;SDS011;9350;53.176;8.194;2023-05-09T11:25:30;13.00;;;9.65;;
18443;SDS011;9350;53.176;8.194;2023-05-09T11:27:58;10.18;;;7.93;;
18443;SDS011;9350;53.176;8.194;2023-05-09T11:30:34;10.38;;;8.57;;
18443;SDS011;9350;53.176;8.194;2023-05-09T11:33:03;10.27;;;8.20;;
18443;SDS011;9350;53.176;8.194;2023-05-09T11:35:30;10.32;;;8.75;;
18443;SDS011;9350;53.176;8.194;2023-05-09T11:37:58;11.82;;;9.15;;
18443;SDS011;9350;53.176;8.194;2023-05-09T11:40:26;13.02;;;8.82;;
18443;SDS011;9350;53.176;8.194;2023-05-09T11:42:54;11.15;;;7.70;;
18443;SDS011;9350;53.176;8.194;2023-05-09T11:45:23;9.23;;;8.20;;
18443;SDS011;9350;53.176;8.194;2023-05-09T11:47:51;8.68;;;7.78;;
18443;SDS011;9350;53.176;8.194;2023-05-09T11:50:20;9.80;;;7.40;;
18443;SDS011;9350;53.176;8.194;2023-05-09T11:52:47;8.57;;;7.57;;
18443;SDS011;9350;53.176;8.194;2023-05-09T11:55:14;13.95;;;7.93;;
18443;SDS011;9350;53.176;8.194;2023-05-09T11:57:44;12.93;;;7.05;;
18443;SDS011;9350;53.176;8.194;2023-05-09T12:00:12;7.60;;;6.80;;
18443;SDS011;9350;53.176;8.194;2023-05-09T12:02:42;9.00;;;7.13;;
18443;SDS011;9350;53.176;8.194;2023-05-09T12:05:10;7.40;;;6.68;;
18443;SDS011;9350;53.176;8.194;2023-05-09T12:07:40;8.23;;;7.38;;
18443;SDS011;9350;53.176;8.194;2023-05-09T12:10:07;8.98;;;7.30;;
18443;SDS011;9350;53.176;8.194;2023-05-09T12:12:35;11.43;;;7.93;;
18443;SDS011;9350;53.176;8.194;2023-05-09T12:15:07;8.85;;;7.68;;
18443;SDS011;9350;53.176;8.194;2023-05-09T12:17:34;10.18;;;7.75;;
18443;SDS011;9350;53.176;8.194;2023-05-09T12:20:01;8.82;;;7.68;;
18443;SDS011;9350;53.176;8.194;2023-05-09T12:22:29;10.70;;;7.75;;
18443;SDS011;9350;53.176;8.194;2023-05-09T12:24:58;10.30;;;7.93;;
18443;SDS011;9350;53.176;8.194;2023-05-09T12:27:26;8.90;;;7.78;;
18443;SDS011;9350;53.176;8.194;2023-05-09T12:29:53;16.67;;;8.23;;
18443;SDS011;9350;53.176;8.194;2023-05-09T12:32:20;9.10;;;7.88;;
18443;SDS011;9350;53.176;8.194;2023-05-09T12:34:47;11.77;;;7.90;;
18443;SDS011;9350;53.176;8.194;2023-05-09T12:37:16;11.73;;;8.90;;
18443;SDS011;9350;53.176;8.194;2023-05-09T12:39:43;10.77;;;9.10;;
18443;SDS011;9350;53.176;8.194;2023-05-09T12:42:27;9.77;;;8.15;;
18443;SDS011;9350;53.176;8.194;2023-05-09T12:44:53;9.77;;;7.75;;
18443;SDS011;9350;53.176;8.194;2023-05-09T12:47:20;10.32;;;8.02;;
18443;SDS011;9350;53.176;8.194;2023-05-09T12:49:47;9.20;;;7.28;;
18443;SDS011;9350;53.176;8.194;2023-05-09T12:52:15;8.30;;;7.07;;
18443;SDS011;9350;53.176;8.194;2023-05-09T12:54:44;9.63;;;8.20;;
18443;SDS011;9350;53.176;8.194;2023-05-09T12:57:19;9.88;;;7.78;;
18443;SDS011;9350;53.176;8.194;2023-05-09T12:59:48;9.55;;;7.60;;
18443;SDS011;9350;53.176;8.194;2023-05-09T13:02:15;7.57;;;6.68;;
18443;SDS011;9350;53.176;8.194;2023-05-09T13:04:43;8.73;;;7.70;;
18443;SDS011;9350;53.176;8.194;2023-05-09T13:07:09;11.63;;;7.63;;
18443;SDS011;9350;53.176;8.194;2023-05-09T13:09:36;10.52;;;7.43;;
18443;SDS011;9350;53.176;8.194;2023-05-09T13:12:19;13.48;;;8.23;;
18443;SDS011;9350;53.176;8.194;2023-05-09T13:14:47;11.80;;;7.75;;
18443;SDS011;9350;53.176;8.194;2023-05-09T13:17:14;9.60;;;8.05;;
18443;SDS011;9350;53.176;8.194;2023-05-09T13:19:41;9.50;;;7.68;;
18443;SDS011;9350;53.176;8.194;2023-05-09T13:22:07;11.43;;;7.78;;
18443;SDS011;9350;53.176;8.194;2023-05-09T13:24:34;9.77;;;7.28;;
18443;SDS011;9350;53.176;8.194;2023-05-09T13:27:01;12.80;;;8.00;;
18443;SDS011;9350;53.176;8.194;2023-05-09T13:29:28;9.38;;;8.02;;
18443;SDS011;9350;53.176;8.194;2023-05-09T13:31:56;10.70;;;8.00;;
18443;SDS011;9350;53.176;8.194;2023-05-09T13:34:23;9.20;;;8.23;;
18443;SDS011;9350;53.176;8.194;2023-05-09T13:36:51;7.47;;;6.63;;
18443;SDS011;9350;53.176;8.194;2023-05-09T13:39:17;9.18;;;7.57;;
18443;SDS011;9350;53.176;8.194;2023-05-09T13:41:44;7.78;;;6.97;;
18443;SDS011;9350;53.176;8.194;2023-05-09T13:44:12;10.65;;;6.95;;
18443;SDS011;9350;53.176;8.194;2023-05-09T13:46:39;8.30;;;7.28;;
18443;SDS011;9350;53.176;8.194;2023-05-09T13:49:07;8.68;;;7.38;;
18443;SDS011;9350;53.176;8.194;2023-05-09T13:51:34;8.77;;;7.05;;
18443;SDS011;9350;53.176;8.194;2023-05-09T13:54:01;7.60;;;6.82;;
18443;SDS011;9350;53.176;8.194;2023-05-09T13:56:28;7.20;;;6.50;;
18443;SDS011;9350;53.176;8.194;2023-05-09T13:58:56;7.15;;;6.05;;
18443;SDS011;9350;53.176;8.194;2023-05-09T14:01:22;7.05;;;6.38;;
18443;SDS011;9350;53.176;8.194;2023-05-09T14:03:49;9.25;;;6.95;;
18443;SDS011;9350;53.176;8.194;2023-05-09T14:06:17;8.45;;;6.75;;
18443;SDS011;9350;53.176;8.194;2023-05-09T14:08:44;7.80;;;7.07;;
18443;SDS011;9350;53.176;8.194;2023-05-09T14:11:11;8.77;;;7.03;;
18443;SDS011;9350;53.176;8.194;2023-05-09T14:13:37;8.63;;;7.72;;
18443;SDS011;9350;53.176;8.194;2023-05-09T14:16:04;8.25;;;7.40;;
18443;SDS011;9350;53.176;8.194;2023-05-09T14:18:32;8.00;;;6.85;;
18443;SDS011;9350;53.176;8.194;2023-05-09T14:20:59;8.25;;;6.97;;
18443;SDS011;9350;53.176;8.194;2023-05-09T14:23:27;8.60;;;7.05;;
18443;SDS011;9350;53.176;8.194;2023-05-09T14:25:54;7.53;;;6.75;;
18443;SDS011;9350;53.176;8.194;2023-05-09T14:28:21;7.80;;;6.70;;
18443;SDS011;9350;53.176;8.194;2023-05-09T14:30:48;7.70;;;6.90;;
18443;SDS011;9350;53.176;8.194;2023-05-09T14:33:15;7.97;;;6.90;;
18443;SDS011;9350;53.176;8.194;2023-05-09T14:35:41;8.10;;;7.20;;
18443;SDS011;9350;53.176;8.194;2023-05-09T14:38:08;8.00;;;7.10;;
18443;SDS011;9350;53.176;8.194;2023-05-09T14:40:37;8.88;;;7.68;;
18443;SDS011;9350;53.176;8.194;2023-05-09T14:43:04;8.05;;;6.88;;
18443;SDS011;9350;53.176;8.194;2023-05-09T14:45:31;7.05;;;6.38;;
18443;SDS011;9350;53.176;8.194;2023-05-09T14:47:58;7.60;;;6.50;;
18443;SDS011;9350;53.176;8.194;2023-05-09T14:50:25;11.50;;;7.30;;
18443;SDS011;9350;53.176;8.194;2023-05-09T14:52:52;6.20;;;5.60;;
18443;SDS011;9350;53.176;8.194;2023-05-09T14:55:19;6.53;;;5.85;;
18443;SDS011;9350;53.176;8.194;2023-05-09T14:57:48;9.00;;;6.93;;
18443;SDS011;9350;53.176;8.194;2023-05-09T15:00:15;8.82;;;6.40;;
18443;SDS011;9350;53.176;8.194;2023-05-09T15:02:42;5.35;;;4.85;;
18443;SDS011;9350;53.176;8.194;2023-05-09T15:05:09;5.40;;;4.60;;
18443;SDS011;9350;53.176;8.194;2023-05-09T15:07:36;4.07;;;3.72;;